Time;durP1;ratioP1;P1;durP2;ratioP2;P2;SDS_P1;SDS_P2;PMS_P1;PMS_P2;Temp;Humidity;BMP_temperature;BMP_pressure;BME280_temperature;BME280_humidity;BME280_pressure;Samples;Min_cycle;Max_cycle;Signal;HPM_P1;HPM_P2
2021/03/09 00:00:13;;;;;;;6.47;2.22;;;7.80;99.90;;;;;;5054609;28;20160;-75
2021/03/09 00:02:39;;;;;;;3.60;2.50;;;7.90;99.90;;;;;;5055325;28;20202;-76
2021/03/09 00:05:05;;;;;;;2.38;2.17;;;7.70;99.90;;;;;;5054175;28;20164;-76
2021/03/09 00:07:31;;;;;;;8.50;3.58;;;7.70;99.90;;;;;;5054507;28;20730;-75
2021/03/09 00:09:57;;;;;;;2.17;2.08;;;7.80;99.90;;;;;;5054572;28;20155;-76
2021/03/09 00:12:22;;;;;;;3.55;2.45;;;7.80;99.90;;;;;;5054714;28;20175;-76
2021/03/09 00:14:48;;;;;;;3.22;2.17;;;7.70;99.90;;;;;;5054489;28;20190;-76
2021/03/09 00:17:13;;;;;;;3.45;3.13;;;7.70;99.90;;;;;;5054368;28;20191;-76
2021/03/09 00:19:39;;;;;;;3.90;1.67;;;7.60;99.90;;;;;;5036882;28;20172;-76
2021/03/09 00:22:05;;;;;;;4.22;1.77;;;7.50;99.90;;;;;;5054293;28;20234;-76
2021/03/09 00:24:31;;;;;;;2.17;2.08;;;7.60;99.90;;;;;;5054327;28;20166;-76
2021/03/09 00:26:56;;;;;;;4.20;1.70;;;7.70;99.90;;;;;;5054157;28;20195;-76
2021/03/09 00:29:22;;;;;;;3.15;2.85;;;7.70;99.90;;;;;;5054365;28;20620;-76
2021/03/09 00:31:47;;;;;;;1.70;1.60;;;7.70;99.90;;;;;;5054132;28;20174;-76
2021/03/09 00:34:13;;;;;;;3.13;2.63;;;7.50;99.90;;;;;;5053976;28;20166;-76
2021/03/09 00:36:38;;;;;;;1.42;1.38;;;7.50;99.90;;;;;;5054348;28;20191;-76
2021/03/09 00:39:04;;;;;;;4.40;3.45;;;7.60;99.90;;;;;;5054315;28;20246;-76
2021/03/09 00:41:30;;;;;;;9.35;2.40;;;7.50;99.90;;;;;;5054384;28;20202;-76
2021/03/09 00:43:55;;;;;;;2.45;2.35;;;7.60;99.90;;;;;;5054372;28;20622;-76
2021/03/09 00:46:21;;;;;;;4.22;2.10;;;7.40;99.90;;;;;;5054090;28;20187;-76
2021/03/09 00:48:46;;;;;;;1.90;1.80;;;7.30;99.90;;;;;;5054195;28;20167;-76
2021/03/09 00:51:12;;;;;;;2.05;1.83;;;7.40;99.90;;;;;;5053995;28;20175;-76
2021/03/09 00:53:38;;;;;;;4.53;3.22;;;7.50;99.90;;;;;;5054038;28;20195;-76
2021/03/09 00:56:05;;;;;;;3.45;2.78;;;7.50;99.90;;;;;;5054243;28;20167;-75
2021/03/09 00:58:30;;;;;;;12.25;4.15;;;7.50;99.90;;;;;;5053992;28;20222;-76
2021/03/09 01:00:56;;;;;;;1.88;1.58;;;7.50;99.90;;;;;;5054168;28;20195;-76
2021/03/09 01:03:22;;;;;;;11.60;3.97;;;7.60;99.90;;;;;;5053788;28;20697;-76
2021/03/09 01:05:48;;;;;;;4.97;3.17;;;7.50;99.90;;;;;;5053711;28;20178;-76
2021/03/09 01:08:14;;;;;;;3.80;2.17;;;7.50;99.90;;;;;;5043840;28;20175;-77
2021/03/09 01:10:40;;;;;;;6.70;3.40;;;7.50;99.90;;;;;;5066659;28;20189;-76
2021/03/09 01:13:05;;;;;;;2.17;2.08;;;7.50;99.90;;;;;;5065257;28;20657;-77
2021/03/09 01:15:31;;;;;;;3.45;1.80;;;7.40;99.90;;;;;;5066398;28;20178;-77
2021/03/09 01:17:57;;;;;;;2.25;1.95;;;7.50;99.90;;;;;;5066448;28;20198;-76
2021/03/09 01:20:22;;;;;;;4.45;3.63;;;7.40;99.90;;;;;;5065910;28;20177;-77
2021/03/09 01:22:48;;;;;;;2.25;2.03;;;7.40;99.90;;;;;;5066031;28;20222;-76
2021/03/09 01:25:15;;;;;;;2.67;2.45;;;7.30;99.90;;;;;;5065457;28;20197;-77
2021/03/09 01:27:40;;;;;;;1.75;1.65;;;7.20;99.90;;;;;;5047454;28;20269;-76
2021/03/09 01:30:09;;;;;;;5.70;2.90;;;7.00;99.90;;;;;;5066045;28;20166;-77
2021/03/09 01:32:35;;;;;;;1.63;1.55;;;7.00;99.90;;;;;;5065634;28;20170;-77
2021/03/09 01:35:01;;;;;;;2.08;1.77;;;7.00;99.90;;;;;;5066366;28;20155;-77
2021/03/09 01:37:27;;;;;;;2.70;2.28;;;6.90;99.90;;;;;;5055324;28;20229;-76
2021/03/09 01:39:53;;;;;;;2.95;2.83;;;7.00;99.90;;;;;;5053878;28;20160;-76
2021/03/09 01:42:18;;;;;;;8.85;2.22;;;7.10;99.90;;;;;;5054021;28;20306;-76
2021/03/09 01:44:44;;;;;;;3.78;2.28;;;7.10;99.90;;;;;;5055106;28;20213;-76
2021/03/09 01:47:10;;;;;;;4.20;2.28;;;6.90;99.90;;;;;;5053766;28;20210;-76
2021/03/09 01:49:38;;;;;;;4.70;2.85;;;6.90;99.90;;;;;;5053824;28;20246;-77
2021/03/09 01:52:06;;;;;;;4.75;2.95;;;7.00;99.90;;;;;;5054123;28;20167;-76
2021/03/09 01:54:33;;;;;;;1.98;1.77;;;7.20;99.90;;;;;;5055157;28;20170;-76
2021/03/09 01:56:59;;;;;;;2.00;1.13;;;7.20;99.90;;;;;;5055687;28;20281;-75
2021/03/09 01:59:26;;;;;;;2.50;2.40;;;7.20;99.90;;;;;;5054394;28;20219;-76
2021/03/09 02:01:52;;;;;;;2.85;2.47;;;7.00;99.90;;;;;;5036518;28;20564;-76
2021/03/09 02:04:18;;;;;;;9.45;4.18;;;6.80;99.90;;;;;;5055575;28;20171;-76
2021/03/09 02:06:43;;;;;;;0.88;0.88;;;6.90;99.90;;;;;;5056005;28;20191;-77
2021/03/09 02:09:09;;;;;;;1.05;1.05;;;6.80;99.90;;;;;;5056055;28;20159;-77
2021/03/09 02:11:57;;;;;;;2.47;2.25;;;6.80;99.90;;;;;;5055282;28;20739;-75
2021/03/09 02:14:53;;;;;;;1.98;1.88;;;6.60;99.90;;;;;;5060169;28;20229;-76
2021/03/09 02:17:43;;;;;;;2.13;2.00;;;6.80;99.90;;;;;;5065105;28;20230;-76
2021/03/09 02:20:37;;;;;;;2.33;1.92;;;6.90;99.90;;;;;;5059955;28;20170;-77
2021/03/09 02:23:24;;;;;;;2.47;2.28;;;6.90;99.90;;;;;;5055445;28;20230;-76
2021/03/09 02:26:10;;;;;;;3.00;2.72;;;6.80;99.90;;;;;;5056006;28;20160;-77
2021/03/09 02:29:02;;;;;;;1.42;1.33;;;6.80;99.90;;;;;;5042846;28;20206;-76
2021/03/09 02:31:29;;;;;;;7.47;2.42;;;7.00;99.90;;;;;;5059924;28;20217;-75
2021/03/09 02:34:00;;;;;;;16.35;3.97;;;7.00;99.90;;;;;;5059289;28;20250;-75
2021/03/09 02:36:29;;;;;;;8.82;1.30;;;6.80;99.90;;;;;;5058290;28;20183;-76
2021/03/09 02:39:05;;;;;;;7.97;2.60;;;6.60;99.90;;;;;;5057846;28;20205;-77
2021/03/09 02:41:32;;;;;;;3.92;1.92;;;6.60;99.90;;;;;;5058679;28;20226;-76
2021/03/09 02:43:59;;;;;;;1.20;1.08;;;6.80;99.90;;;;;;5058653;28;20164;-77
2021/03/09 02:46:28;;;;;;;1.45;1.38;;;6.70;99.90;;;;;;5057982;28;20269;-76
2021/03/09 02:48:55;;;;;;;16.83;6.10;;;6.50;99.90;;;;;;5057308;28;20175;-76
2021/03/09 02:51:26;;;;;;;1.15;1.15;;;6.60;99.90;;;;;;5056986;28;20166;-76
2021/03/09 02:53:55;;;;;;;3.30;2.80;;;6.70;99.90;;;;;;5039193;28;20171;-76
2021/03/09 02:56:23;;;;;;;2.88;2.67;;;6.80;99.90;;;;;;5056456;28;20187;-77
2021/03/09 02:58:51;;;;;;;1.65;1.52;;;6.90;99.90;;;;;;5055445;28;20570;-77
2021/03/09 03:01:19;;;;;;;3.50;1.85;;;6.90;99.90;;;;;;5055630;28;20202;-77
2021/03/09 03:03:47;;;;;;;2.42;2.22;;;7.00;99.90;;;;;;5055331;28;20163;-77
2021/03/09 03:06:14;;;;;;;1.52;1.42;;;6.90;99.90;;;;;;5055437;28;20197;-76
2021/03/09 03:08:40;;;;;;;2.03;1.77;;;6.60;99.90;;;;;;5055359;28;20160;-77
2021/03/09 03:11:07;;;;;;;0.82;0.82;;;6.50;99.90;;;;;;5055325;28;20202;-77
2021/03/09 03:13:34;;;;;;;4.47;3.78;;;6.50;99.90;;;;;;5055257;28;20190;-77
2021/03/09 03:16:00;;;;;;;1.40;1.33;;;6.60;99.90;;;;;;5055290;28;20174;-77
2021/03/09 03:18:29;;;;;;;7.50;2.22;;;6.70;99.90;;;;;;5055400;28;20171;-76
2021/03/09 03:20:55;;;;;;;3.95;1.60;;;6.60;99.90;;;;;;5054984;28;20195;-77
2021/03/09 03:23:23;;;;;;;3.13;1.85;;;6.60;99.90;;;;;;5055062;28;20516;-77
2021/03/09 03:25:53;;;;;;;5.93;1.38;;;6.70;99.90;;;;;;5054953;28;20163;-77
2021/03/09 03:28:20;;;;;;;15.85;2.85;;;6.80;99.90;;;;;;5054936;28;20182;-77
2021/03/09 03:30:47;;;;;;;5.88;2.30;;;6.70;99.90;;;;;;5054921;28;20167;-77
2021/03/09 03:33:13;;;;;;;1.17;0.95;;;6.80;99.90;;;;;;5055420;28;20175;-77
2021/03/09 03:35:39;;;;;;;2.35;2.08;;;6.60;99.90;;;;;;5054906;28;20168;-76
2021/03/09 03:38:06;;;;;;;2.60;2.22;;;6.50;99.90;;;;;;5054851;28;20270;-77
2021/03/09 03:40:31;;;;;;;2.50;1.92;;;6.40;99.90;;;;;;5053823;28;20150;-77
2021/03/09 03:42:57;;;;;;;2.83;1.40;;;6.50;99.90;;;;;;5055092;28;20550;-77
2021/03/09 03:45:24;;;;;;;4.00;2.80;;;6.60;99.90;;;;;;5054984;28;20164;-77
2021/03/09 03:47:56;;;;;;;1.23;1.20;;;6.80;99.90;;;;;;5054530;28;20305;-77
2021/03/09 03:50:22;;;;;;;9.15;3.55;;;6.80;99.90;;;;;;5054908;28;20568;-77
2021/03/09 03:53:02;;;;;;;1.23;1.23;;;6.70;99.90;;;;;;5054523;28;20156;-77
2021/03/09 03:55:58;;;;;;;7.70;2.90;;;6.80;99.90;;;;;;5054517;28;20596;-77
2021/03/09 03:58:51;;;;;;;2.42;2.22;;;6.50;99.90;;;;;;5054434;28;20218;-77
2021/03/09 04:01:20;;;;;;;5.43;4.90;;;6.80;99.90;;;;;;5054303;28;20209;-77
2021/03/09 04:03:49;;;;;;;2.10;1.08;;;6.80;99.90;;;;;;5054395;28;20221;-77
2021/03/09 04:06:16;;;;;;;2.17;2.00;;;6.70;99.90;;;;;;5054268;28;20183;-77
2021/03/09 04:08:43;;;;;;;5.47;2.42;;;6.60;99.90;;;;;;5054473;28;20637;-77
2021/03/09 04:11:09;;;;;;;1.80;1.70;;;6.70;99.90;;;;;;5054309;28;20164;-77
2021/03/09 04:13:41;;;;;;;3.30;2.88;;;6.80;99.90;;;;;;5054290;28;20187;-77
2021/03/09 04:16:08;;;;;;;6.97;2.47;;;6.80;99.90;;;;;;5054130;28;20181;-77
2021/03/09 04:18:37;;;;;;;1.67;1.58;;;6.50;99.90;;;;;;5054342;28;20182;-77
2021/03/09 04:21:03;;;;;;;1.80;1.65;;;6.60;99.90;;;;;;5054004;28;20167;-77
2021/03/09 04:23:30;;;;;;;3.35;3.00;;;6.50;99.90;;;;;;5054155;28;20160;-77
2021/03/09 04:25:56;;;;;;;6.72;2.58;;;6.40;99.90;;;;;;5054022;28;20160;-77
2021/03/09 04:28:23;;;;;;;10.30;1.85;;;6.50;99.90;;;;;;5053916;28;20522;-77
2021/03/09 04:30:49;;;;;;;8.60;2.40;;;6.40;99.90;;;;;;5054077;28;20258;-77
2021/03/09 04:33:15;;;;;;;7.15;2.90;;;6.50;99.90;;;;;;5053969;28;20187;-77
2021/03/09 04:35:41;;;;;;;1.42;1.38;;;6.40;99.90;;;;;;5053917;28;20174;-77
2021/03/09 04:38:06;;;;;;;1.08;1.08;;;6.40;99.90;;;;;;5056021;28;20214;-77
2021/03/09 04:40:34;;;;;;;1.25;1.25;;;6.70;99.90;;;;;;5056947;28;20167;-77
2021/03/09 04:43:01;;;;;;;4.72;2.17;;;6.70;99.90;;;;;;5054670;28;20195;-77
2021/03/09 04:45:27;;;;;;;1.83;1.73;;;6.90;99.90;;;;;;5037779;28;20194;-77
2021/03/09 04:47:52;;;;;;;5.18;2.78;;;6.70;99.90;;;;;;5055354;28;20222;-77
2021/03/09 04:50:18;;;;;;;2.40;2.30;;;6.70;99.90;;;;;;5065259;28;20163;-77
2021/03/09 04:52:48;;;;;;;11.13;3.50;;;6.50;99.90;;;;;;5064119;28;20258;-78
2021/03/09 04:55:15;;;;;;;7.60;3.03;;;6.60;99.90;;;;;;5058248;28;20198;-77
2021/03/09 04:57:43;;;;;;;1.83;1.73;;;6.70;99.90;;;;;;5054055;28;20262;-77
2021/03/09 05:00:11;;;;;;;1.92;1.83;;;6.90;99.90;;;;;;5054301;28;20190;-77
2021/03/09 05:02:37;;;;;;;5.07;3.28;;;6.90;99.90;;;;;;5053811;28;20213;-77
2021/03/09 05:05:03;;;;;;;2.85;1.55;;;6.80;99.90;;;;;;5053316;28;20250;-77
2021/03/09 05:07:29;;;;;;;2.25;1.65;;;6.70;99.90;;;;;;5053778;28;20225;-77
2021/03/09 05:09:54;;;;;;;2.22;2.13;;;6.70;99.90;;;;;;5053901;28;20155;-77
2021/03/09 05:12:20;;;;;;;2.88;1.75;;;6.70;99.90;;;;;;5054134;28;20167;-77
2021/03/09 05:14:46;;;;;;;1.98;1.42;;;6.60;99.90;;;;;;5054205;28;20190;-77
2021/03/09 05:17:11;;;;;;;0.93;0.73;;;6.40;99.90;;;;;;5053627;28;20223;-75
2021/03/09 05:19:37;;;;;;;3.08;2.67;;;6.50;99.90;;;;;;5054230;28;20558;-76
2021/03/09 05:22:02;;;;;;;1.27;1.25;;;6.70;99.90;;;;;;5053287;28;20696;-76
2021/03/09 05:24:28;;;;;;;2.00;1.65;;;6.60;99.90;;;;;;5053850;28;20223;-76
2021/03/09 05:26:54;;;;;;;1.60;1.50;;;6.50;99.90;;;;;;5053166;28;20191;-76
2021/03/09 05:29:20;;;;;;;2.67;2.47;;;6.40;99.90;;;;;;5053202;28;20147;-76
2021/03/09 05:31:47;;;;;;;2.72;1.63;;;6.60;99.90;;;;;;5019236;28;20630;-76
2021/03/09 05:34:13;;;;;;;6.80;3.72;;;6.70;99.90;;;;;;5036000;28;20216;-77
2021/03/09 05:36:38;;;;;;;3.67;2.88;;;6.70;99.90;;;;;;5053373;28;20274;-77
2021/03/09 05:39:04;;;;;;;5.15;2.60;;;6.70;99.90;;;;;;5053537;28;20167;-76
2021/03/09 05:41:30;;;;;;;7.05;1.45;;;6.70;99.90;;;;;;5053344;28;20208;-76
2021/03/09 05:43:56;;;;;;;2.78;2.15;;;6.60;99.90;;;;;;5053207;28;20159;-76
2021/03/09 05:46:22;;;;;;;1.13;1.13;;;6.50;99.90;;;;;;5035547;28;20195;-76
2021/03/09 05:48:48;;;;;;;1.83;1.15;;;6.50;99.90;;;;;;5053197;28;20494;-75
2021/03/09 05:51:14;;;;;;;1.50;1.40;;;6.50;99.90;;;;;;5053052;28;20182;-75
2021/03/09 05:53:39;;;;;;;2.50;2.28;;;6.50;99.90;;;;;;5035069;28;20171;-76
2021/03/09 05:56:06;;;;;;;6.32;1.38;;;6.50;99.90;;;;;;5053023;28;20238;-76
2021/03/09 05:58:32;;;;;;;0.95;0.95;;;6.70;99.90;;;;;;5052645;28;20553;-76
2021/03/09 06:00:58;;;;;;;8.07;4.07;;;6.80;99.90;;;;;;5052686;28;20250;-76
2021/03/09 06:03:27;;;;;;;2.65;1.45;;;6.80;99.90;;;;;;5054249;28;20167;-76
2021/03/09 06:05:53;;;;;;;2.42;2.20;;;6.90;99.90;;;;;;5039056;28;20179;-76
2021/03/09 06:08:19;;;;;;;2.20;2.00;;;6.70;99.90;;;;;;5056583;28;20175;-76
2021/03/09 06:10:45;;;;;;;12.20;3.42;;;6.80;99.90;;;;;;5056430;28;20681;-76
2021/03/09 06:13:33;;;;;;;2.55;2.35;;;6.80;99.90;;;;;;5056372;28;20159;-76
2021/03/09 06:15:59;;;;;;;1.88;1.77;;;7.00;99.90;;;;;;5056582;28;20158;-77
2021/03/09 06:18:25;;;;;;;2.90;2.30;;;7.10;99.90;;;;;;5056497;28;20171;-76
2021/03/09 06:21:11;;;;;;;2.22;2.13;;;7.00;99.90;;;;;;5056131;28;20175;-76
2021/03/09 06:23:37;;;;;;;3.22;2.50;;;7.00;99.90;;;;;;5057435;28;20658;-76
2021/03/09 06:26:24;;;;;;;1.77;1.60;;;7.10;99.90;;;;;;5056370;28;20549;-77
2021/03/09 06:29:06;;;;;;;1.65;1.63;;;7.20;99.90;;;;;;5056086;28;20687;-77
2021/03/09 06:31:31;;;;;;;2.53;2.33;;;7.20;99.90;;;;;;5055993;28;20194;-77
2021/03/09 06:34:27;;;;;;;18.55;1.98;;;7.10;99.90;;;;;;5056177;28;20618;-77
2021/03/09 06:37:13;;;;;;;6.53;2.35;;;6.80;99.90;;;;;;5056233;28;20206;-77
2021/03/09 06:39:56;;;;;;;3.00;2.55;;;6.80;99.90;;;;;;5056287;28;20152;-77
2021/03/09 06:42:31;;;;;;;1.30;1.30;;;7.00;99.90;;;;;;5055783;28;20670;-77
2021/03/09 06:45:01;;;;;;;4.47;3.40;;;6.90;99.90;;;;;;5056033;28;20191;-77
2021/03/09 06:47:47;;;;;;;56.42;3.80;;;6.90;99.90;;;;;;5056004;28;20340;-77
2021/03/09 06:50:15;;;;;;;2.10;2.00;;;6.90;99.90;;;;;;5056137;28;20174;-77
2021/03/09 06:52:42;;;;;;;4.72;2.88;;;6.90;99.90;;;;;;5055844;28;20271;-77
2021/03/09 06:55:10;;;;;;;3.15;2.92;;;7.00;99.90;;;;;;5038032;28;20487;-77
2021/03/09 06:57:36;;;;;;;6.07;3.67;;;7.10;99.90;;;;;;5055328;28;20190;-77
2021/03/09 07:00:05;;;;;;;3.13;1.85;;;7.10;99.90;;;;;;5037693;28;20199;-75
2021/03/09 07:02:31;;;;;;;6.78;3.97;;;7.10;99.90;;;;;;5055191;28;20245;-75
2021/03/09 07:05:07;;;;;;;5.68;2.67;;;6.90;99.90;;;;;;5055185;28;20171;-75
2021/03/09 07:07:34;;;;;;;2.72;2.53;;;6.90;99.90;;;;;;5055384;28;20205;-75
2021/03/09 07:10:09;;;;;;;4.32;2.28;;;7.00;99.90;;;;;;5055585;28;20565;-75
2021/03/09 07:12:36;;;;;;;8.10;3.25;;;7.30;99.90;;;;;;5055275;28;20167;-74
2021/03/09 07:15:04;;;;;;;3.97;3.67;;;7.20;99.90;;;;;;5055050;28;20166;-75
2021/03/09 07:17:34;;;;;;;3.60;3.00;;;7.30;99.90;;;;;;5055114;28;20226;-75
2021/03/09 07:20:00;;;;;;;2.30;2.10;;;7.40;99.90;;;;;;5055946;28;20171;-75
2021/03/09 07:22:27;;;;;;;4.35;1.70;;;7.30;99.90;;;;;;5061868;28;20214;-75
2021/03/09 07:25:04;;;;;;;2.03;1.92;;;7.30;99.90;;;;;;5063229;28;20174;-75
2021/03/09 07:27:50;;;;;;;11.00;2.85;;;7.40;99.90;;;;;;5063279;28;20190;-76
2021/03/09 07:30:20;;;;;;;1.65;1.55;;;7.50;99.90;;;;;;5055340;28;20155;-76
2021/03/09 07:32:55;;;;;;;34.83;4.72;;;7.40;99.90;;;;;;5055528;28;20504;-77
2021/03/09 07:35:22;;;;;;;2.72;2.35;;;7.40;99.90;;;;;;5054645;28;20159;-75
2021/03/09 07:37:50;;;;;;;3.75;2.92;;;7.50;99.90;;;;;;5054840;28;20187;-75
2021/03/09 07:40:18;;;;;;;3.53;2.55;;;7.50;99.90;;;;;;5055133;28;20503;-76
2021/03/09 07:42:44;;;;;;;1.77;1.67;;;7.60;99.90;;;;;;5054845;28;20650;-76
2021/03/09 07:45:13;;;;;;;3.42;3.22;;;7.80;99.90;;;;;;5055283;28;20665;-76
2021/03/09 07:47:56;;;;;;;7.97;3.60;;;7.70;99.90;;;;;;5054520;28;20195;-76
2021/03/09 07:50:25;;;;;;;2.72;2.63;;;7.70;99.90;;;;;;5054690;28;20164;-75
2021/03/09 07:53:16;;;;;;;3.45;3.08;;;7.60;99.90;;;;;;5054480;28;20217;-76
2021/03/09 07:55:44;;;;;;;5.15;3.05;;;7.70;99.90;;;;;;5053874;28;20528;-75
2021/03/09 07:58:22;;;;;;;2.33;2.10;;;7.70;99.90;;;;;;5054398;28;20294;-76
2021/03/09 08:01:06;;;;;;;5.47;2.70;;;7.80;99.90;;;;;;5054779;28;20212;-77
2021/03/09 08:03:36;;;;;;;11.05;2.97;;;7.80;99.90;;;;;;5066180;28;20190;-78
2021/03/09 08:06:08;;;;;;;6.63;4.18;;;7.80;99.90;;;;;;5074274;28;20157;-77
2021/03/09 08:08:55;;;;;;;5.82;3.38;;;7.80;99.90;;;;;;5073758;28;20163;-75
2021/03/09 08:11:22;;;;;;;3.97;2.22;;;7.70;99.90;;;;;;5073553;28;20522;-74
2021/03/09 08:14:03;;;;;;;6.95;3.92;;;7.90;99.90;;;;;;5074430;28;20169;-75
2021/03/09 08:16:34;;;;;;;4.78;3.25;;;8.10;99.90;;;;;;5074094;28;20266;-75
2021/03/09 08:19:11;;;;;;;2.33;2.17;;;8.00;99.90;;;;;;5073694;28;20178;-75
2021/03/09 08:21:59;;;;;;;3.72;3.53;;;8.10;99.90;;;;;;5073264;28;20209;-76
2021/03/09 08:24:40;;;;;;;5.45;3.05;;;8.20;99.90;;;;;;5073530;28;20181;-76
2021/03/09 08:27:25;;;;;;;4.57;1.83;;;8.30;99.90;;;;;;5072547;28;20197;-76
2021/03/09 08:29:51;;;;;;;2.97;2.35;;;8.40;99.90;;;;;;5073694;28;20178;-76
2021/03/09 08:32:27;;;;;;;5.55;3.45;;;8.40;99.90;;;;;;5064168;28;20716;-75
2021/03/09 08:35:11;;;;;;;5.18;4.80;;;8.20;99.90;;;;;;5053514;28;20249;-76
2021/03/09 08:37:39;;;;;;;2.47;2.28;;;8.20;99.90;;;;;;5052882;28;20274;-76
2021/03/09 08:40:14;;;;;;;4.78;3.63;;;8.20;99.90;;;;;;5053476;28;20147;-75
2021/03/09 08:43:02;;;;;;;4.57;4.18;;;8.20;99.90;;;;;;5053074;28;20217;-75
2021/03/09 08:45:35;;;;;;;3.55;3.17;;;8.20;99.90;;;;;;5040438;28;20175;-75
2021/03/09 08:48:01;;;;;;;5.90;4.43;;;8.20;99.90;;;;;;5052977;28;20190;-75
2021/03/09 08:50:41;;;;;;;2.15;2.05;;;8.50;99.90;;;;;;5053440;28;20186;-75
2021/03/09 08:53:27;;;;;;;2.13;1.67;;;8.50;99.90;;;;;;5053000;28;20246;-78
2021/03/09 08:56:01;;;;;;;7.85;2.90;;;8.50;99.90;;;;;;5052786;28;20167;-76
2021/03/09 08:58:28;;;;;;;3.83;3.05;;;8.40;99.90;;;;;;5052342;28;20233;-76
2021/03/09 09:00:55;;;;;;;4.32;3.58;;;8.20;99.90;;;;;;5053138;28;20221;-76
2021/03/09 09:03:35;;;;;;;3.08;2.17;;;8.20;99.90;;;;;;5053087;28;20189;-76
2021/03/09 09:06:01;;;;;;;3.50;3.30;;;8.10;99.90;;;;;;5052810;28;20158;-76
2021/03/09 09:08:27;;;;;;;5.50;2.90;;;8.20;99.90;;;;;;5052638;28;20164;-75
2021/03/09 09:10:53;;;;;;;3.47;3.22;;;8.30;99.90;;;;;;5053025;28;20229;-75
2021/03/09 09:13:29;;;;;;;3.03;2.75;;;8.30;99.90;;;;;;5052696;28;20182;-75
2021/03/09 09:15:55;;;;;;;15.40;3.40;;;8.60;99.90;;;;;;5052974;28;20171;-76
2021/03/09 09:18:22;;;;;;;2.88;2.67;;;8.70;99.90;;;;;;5052528;28;20167;-76
2021/03/09 09:20:48;;;;;;;2.70;1.92;;;8.90;99.90;;;;;;5052748;28;20163;-75
2021/03/09 09:23:20;;;;;;;5.75;3.47;;;9.00;99.90;;;;;;5052379;28;20212;-76
2021/03/09 09:25:51;;;;;;;14.52;3.28;;;9.00;99.90;;;;;;5052518;28;20162;-75
2021/03/09 09:28:25;;;;;;;25.35;2.47;;;9.20;99.90;;;;;;5052463;28;20167;-75
2021/03/09 09:30:51;;;;;;;5.57;3.22;;;9.20;99.90;;;;;;5052503;28;20650;-75
2021/03/09 09:33:18;;;;;;;5.18;3.50;;;9.20;99.90;;;;;;5052233;28;20182;-75
2021/03/09 09:35:46;;;;;;;8.82;4.78;;;9.30;99.90;;;;;;5052913;28;20163;-75
2021/03/09 09:38:13;;;;;;;7.72;4.65;;;9.30;99.90;;;;;;5053256;28;20233;-75
2021/03/09 09:40:46;;;;;;;10.63;3.97;;;9.30;99.90;;;;;;5071648;28;20189;-75
2021/03/09 09:43:13;;;;;;;9.40;2.63;;;9.50;99.90;;;;;;5059196;28;20201;-75
2021/03/09 09:45:51;;;;;;;6.38;3.03;;;9.50;99.90;;;;;;5055998;28;20175;-75
2021/03/09 09:48:23;;;;;;;2.92;2.72;;;9.80;99.90;;;;;;5057030;28;20190;-76
2021/03/09 09:50:54;;;;;;;2.13;1.75;;;10.00;99.90;;;;;;5076564;28;20173;-75
2021/03/09 09:53:35;;;;;;;1.40;1.30;;;10.20;99.90;;;;;;5076761;28;20174;-75
2021/03/09 09:56:02;;;;;;;3.80;2.72;;;10.20;99.90;;;;;;5081714;28;20245;-75
2021/03/09 09:58:55;;;;;;;3.78;3.50;;;10.10;99.90;;;;;;5081391;28;20226;-74
2021/03/09 10:01:39;;;;;;;7.07;2.50;;;9.90;99.90;;;;;;5077902;28;20695;-75
2021/03/09 10:04:10;;;;;;;5.53;3.70;;;9.90;99.90;;;;;;5056245;28;20167;-75
2021/03/09 10:06:38;;;;;;;11.40;3.78;;;10.00;99.90;;;;;;5056512;28;20250;-74
2021/03/09 10:09:13;;;;;;;8.77;3.75;;;9.70;99.90;;;;;;5057019;28;20527;-76
2021/03/09 10:11:52;;;;;;;3.70;3.40;;;9.90;99.90;;;;;;5059278;28;20202;-75
2021/03/09 10:14:19;;;;;;;11.18;5.60;;;10.30;99.90;;;;;;5056719;28;20199;-75
2021/03/09 10:16:45;;;;;;;8.00;3.55;;;10.30;99.90;;;;;;5056581;28;20519;-75
2021/03/09 10:19:17;;;;;;;6.20;2.80;;;10.00;99.90;;;;;;5056769;28;20181;-80
2021/03/09 10:21:50;;;;;;;3.50;3.20;;;9.90;99.90;;;;;;5062660;28;20222;-75
2021/03/09 10:24:26;;;;;;;27.52;5.20;;;10.00;99.90;;;;;;5066063;28;20167;-75
2021/03/09 10:26:52;;;;;;;6.20;2.47;;;10.10;99.90;;;;;;5056006;28;20229;-75
2021/03/09 10:29:20;;;;;;;5.32;3.78;;;10.00;99.90;;;;;;5056820;28;20167;-75
2021/03/09 10:31:49;;;;;;;6.63;4.35;;;10.20;99.90;;;;;;5070154;28;20240;-75
2021/03/09 10:34:19;;;;;;;5.30;4.10;;;10.40;99.90;;;;;;5055520;28;20627;-74
2021/03/09 10:36:49;;;;;;;4.43;3.63;;;10.40;99.90;;;;;;5056374;28;20233;-76
2021/03/09 10:39:15;;;;;;;6.18;3.90;;;10.40;99.90;;;;;;5055848;28;20637;-75
2021/03/09 10:41:41;;;;;;;3.83;2.38;;;10.10;99.90;;;;;;5056597;28;20202;-75
2021/03/09 10:44:06;;;;;;;5.28;3.03;;;10.10;99.90;;;;;;5056067;28;20172;-76
2021/03/09 10:46:34;;;;;;;3.92;3.63;;;10.30;99.90;;;;;;5037942;28;20191;-74
2021/03/09 10:49:00;;;;;;;4.57;2.78;;;10.20;99.90;;;;;;5055419;28;20261;-75
2021/03/09 10:51:26;;;;;;;4.18;3.33;;;10.30;99.90;;;;;;5069027;28;20513;-75
2021/03/09 10:53:51;;;;;;;4.30;3.88;;;10.30;99.90;;;;;;5071729;28;20170;-76
2021/03/09 10:56:17;;;;;;;3.38;2.67;;;10.40;99.90;;;;;;5055347;28;20184;-76
2021/03/09 10:58:42;;;;;;;6.57;3.58;;;10.60;99.90;;;;;;5055689;28;20269;-76
2021/03/09 11:01:08;;;;;;;2.50;2.30;;;10.90;99.90;;;;;;5055566;28;20195;-76
2021/03/09 11:03:34;;;;;;;5.65;3.17;;;10.80;99.90;;;;;;5055391;28;20179;-73
2021/03/09 11:06:00;;;;;;;4.80;3.05;;;10.50;99.90;;;;;;5055070;28;20260;-75
2021/03/09 11:08:25;;;;;;;3.78;3.50;;;10.60;99.90;;;;;;5055031;28;20233;-76
2021/03/09 11:10:55;;;;;;;6.20;3.38;;;10.50;99.90;;;;;;5054568;28;20159;-75
2021/03/09 11:13:21;;;;;;;2.78;2.03;;;10.50;99.90;;;;;;5055055;28;20260;-75
2021/03/09 11:15:47;;;;;;;9.85;4.15;;;10.40;99.90;;;;;;5055156;28;20163;-76
2021/03/09 11:18:13;;;;;;;2.17;2.08;;;10.30;99.90;;;;;;5055032;28;20221;-76
2021/03/09 11:20:41;;;;;;;3.53;3.25;;;9.80;99.90;;;;;;5054033;28;20250;-76
2021/03/09 11:23:06;;;;;;;5.63;3.50;;;9.90;99.90;;;;;;5054772;28;20285;-77
2021/03/09 11:25:34;;;;;;;3.40;2.60;;;10.00;99.90;;;;;;5055128;28;20250;-76
2021/03/09 11:27:59;;;;;;;2.67;2.50;;;10.00;99.90;;;;;;5037095;28;20218;-78
2021/03/09 11:30:25;;;;;;;3.53;2.50;;;10.10;99.90;;;;;;5054837;28;20152;-76
2021/03/09 11:32:50;;;;;;;9.60;1.73;;;10.00;99.90;;;;;;5054170;28;20507;-75
2021/03/09 11:35:17;;;;;;;2.60;2.25;;;10.10;99.90;;;;;;5054355;28;20171;-75
2021/03/09 11:37:43;;;;;;;2.35;2.10;;;10.10;99.90;;;;;;5053360;28;20187;-76
2021/03/09 11:40:09;;;;;;;5.18;3.45;;;9.90;99.90;;;;;;5054385;28;20217;-75
2021/03/09 11:42:35;;;;;;;34.67;2.85;;;9.80;99.90;;;;;;5053398;28;20195;-75
2021/03/09 11:45:01;;;;;;;3.38;2.03;;;9.80;99.90;;;;;;5054382;28;20198;-75
2021/03/09 11:47:27;;;;;;;2.53;1.85;;;9.60;99.90;;;;;;5053970;28;20198;-75
2021/03/09 11:49:53;;;;;;;4.35;1.45;;;9.40;99.90;;;;;;5054527;28;20519;-75
2021/03/09 11:52:18;;;;;;;2.13;2.03;;;9.50;99.90;;;;;;5035975;28;20282;-74
2021/03/09 11:54:44;;;;;;;2.30;1.17;;;9.60;99.90;;;;;;5054108;28;20170;-74
2021/03/09 11:57:09;;;;;;;3.88;3.08;;;9.70;99.90;;;;;;5036303;28;20194;-75
2021/03/09 11:59:35;;;;;;;4.00;2.25;;;9.70;99.90;;;;;;5053883;28;20693;-74
2021/03/09 12:02:00;;;;;;;1.23;1.23;;;9.80;99.90;;;;;;5052950;28;20210;-74
2021/03/09 12:04:26;;;;;;;2.22;1.40;;;9.90;99.90;;;;;;5071735;28;20665;-74
2021/03/09 12:06:52;;;;;;;4.65;2.90;;;10.10;99.90;;;;;;5073789;28;20546;-76
2021/03/09 12:09:18;;;;;;;1.65;1.55;;;10.10;99.90;;;;;;5073833;28;20174;-76
2021/03/09 12:11:43;;;;;;;1.75;1.65;;;10.30;99.90;;;;;;5073331;28;20216;-75
2021/03/09 12:14:09;;;;;;;1.38;1.33;;;10.40;99.90;;;;;;5073681;28;20173;-76
2021/03/09 12:16:34;;;;;;;5.70;2.58;;;10.60;99.90;;;;;;5074183;28;20186;-78
2021/03/09 12:19:00;;;;;;;1.98;1.88;;;10.80;99.90;;;;;;5074184;28;20193;-76
2021/03/09 12:21:26;;;;;;;1.42;1.33;;;10.80;99.90;;;;;;5073423;28;20202;-76
2021/03/09 12:23:51;;;;;;;1.73;1.63;;;10.90;99.90;;;;;;5073605;28;20158;-75
2021/03/09 12:26:17;;;;;;;2.70;1.58;;;10.70;99.90;;;;;;5074568;28;20687;-77
2021/03/09 12:28:43;;;;;;;3.45;1.98;;;10.70;99.90;;;;;;5083157;28;20524;-76
2021/03/09 12:31:08;;;;;;;2.63;1.58;;;10.20;99.90;;;;;;5083855;28;20162;-76
2021/03/09 12:33:34;;;;;;;6.68;2.10;;;10.00;99.90;;;;;;5064485;28;20163;-76
2021/03/09 12:36:00;;;;;;;2.05;1.92;;;10.00;99.90;;;;;;5054801;28;20168;-76
2021/03/09 12:38:28;;;;;;;2.38;1.73;;;10.00;99.90;;;;;;5052755;28;20213;-76
2021/03/09 12:41:05;;;;;;;4.57;3.47;;;9.70;99.90;;;;;;5052311;28;20246;-77
2021/03/09 12:43:30;;;;;;;1.33;1.23;;;9.70;99.90;;;;;;5052603;28;20221;-77
2021/03/09 12:45:56;;;;;;;2.40;2.22;;;9.60;99.90;;;;;;5052624;28;20168;-77
2021/03/09 12:48:21;;;;;;;2.03;1.88;;;9.70;99.90;;;;;;5052418;28;20182;-77
2021/03/09 12:50:47;;;;;;;1.52;1.38;;;9.90;99.90;;;;;;5052281;28;20199;-76
2021/03/09 12:53:13;;;;;;;1.27;1.08;;;9.80;99.90;;;;;;5052623;28;20159;-76
2021/03/09 12:55:38;;;;;;;4.20;2.20;;;9.80;99.90;;;;;;5052857;28;20171;-77
2021/03/09 12:58:04;;;;;;;1.25;1.15;;;9.70;99.90;;;;;;5052326;28;20265;-77
2021/03/09 13:00:30;;;;;;;2.83;1.48;;;9.60;99.90;;;;;;5052672;28;20627;-77
2021/03/09 13:02:56;;;;;;;2.60;1.17;;;9.60;99.90;;;;;;5051918;28;20203;-77
2021/03/09 13:05:22;;;;;;;1.85;1.60;;;9.80;99.90;;;;;;5052532;28;20167;-75